»·PEaware :: N9559V KSNA-KSNA

N9559V :: KSNA-KSNA

FLIGHT INFORMATION

Flight Status: Arrived
Operator: Privately registered:
United States
More flights under this callsign
Pilot: Anonymous 23112 (23112)
Aircraft: CESSNA 172 SKYHAWK
(C172)
More flights by this aircraft type
Origin: KSNA John Wayne-Orange Co
United States
Destination: KSNA John Wayne-Orange Co
United States
More flights between these airports :: More routes between these airports
Route: KSNA SLI KSNA
File this flight plan on PilotEdge
Remarks: I-1 rating
Altitude:
(Current/Filed)
3,000ft
Speed:
(Current/Filed)
120kts
Departed: 10-Feb-19 03:53 PM
Arrived: 10-Feb-19 04:25 PM
Distance/Time
Traveled:
0nm/0:32
Distance/Time
To Go:
Arrived

Flight Plot

Page will automatically refresh every two minutes.


Map Options




Map Legend


Flown Route
Filed Route
Departure Airport
Arrival Airport
Navaid (VOR, NDB)
Fix

Horizontal Profiles

Position Reports

Time Latitude Longitude Heading Altitude Ground
Speed
10-Feb-19 15:40 33.681142 -117.860909 29 59ft 0kts
10-Feb-19 15:41 33.681142 -117.860909 29 59ft 0kts
10-Feb-19 15:42 33.681142 -117.860908 29 59ft 0kts
10-Feb-19 15:43 33.681142 -117.860908 29 59ft 0kts
10-Feb-19 15:44 33.681143 -117.860908 29 59ft 0kts
10-Feb-19 15:45 33.681143 -117.860908 29 59ft 0kts
10-Feb-19 15:46 33.680918 -117.861873 205 59ft 11kts
10-Feb-19 15:47 33.679413 -117.863929 288 59ft 0kts
10-Feb-19 15:48 33.679413 -117.863929 288 59ft 0kts
10-Feb-19 15:49 33.679414 -117.863929 288 59ft 0kts
10-Feb-19 15:50 33.679414 -117.863930 288 59ft 0kts
10-Feb-19 15:51 33.679414 -117.863930 288 59ft 0kts
10-Feb-19 15:52 33.674777 -117.867460 208 119ft 73kts
10-Feb-19 15:53 33.657347 -117.879438 189 1007ft 79kts
10-Feb-19 15:54 33.641631 -117.896158 224 1913ft 71kts
10-Feb-19 15:55 33.628460 -117.913717 226 2711ft 70kts
10-Feb-19 15:56 33.614624 -117.933811 238 3160ft 92kts
10-Feb-19 15:57 33.595110 -117.958069 226 3055ft 111kts
10-Feb-19 15:58 33.588453 -117.987329 334 2888ft 101kts
10-Feb-19 16:00 33.613877 -117.979637 23 2911ft 96kts
10-Feb-19 16:01 33.637521 -117.967210 23 3018ft 91kts
10-Feb-19 16:02 33.660799 -117.955138 23 3118ft 91kts
10-Feb-19 16:03 33.684026 -117.943078 23 3216ft 91kts
10-Feb-19 16:04 33.708612 -117.930726 26 3073ft 104kts
10-Feb-19 16:05 33.734145 -117.916469 23 2931ft 100kts
10-Feb-19 16:06 33.759672 -117.903101 23 2857ft 93kts
10-Feb-19 16:07 33.782414 -117.891896 23 3051ft 89kts
10-Feb-19 16:08 33.805171 -117.880099 23 3200ft 89kts
10-Feb-19 16:09 33.830666 -117.867755 22 3042ft 96kts
10-Feb-19 16:10 33.853766 -117.852277 30 3053ft 95kts
10-Feb-19 16:11 33.876593 -117.836231 30 3052ft 95kts
10-Feb-19 16:12 33.899895 -117.819833 30 2992ft 96kts
10-Feb-19 16:13 33.923057 -117.803514 30 2959ft 96kts
10-Feb-19 16:14 33.923291 -117.780207 158 2921ft 96kts
10-Feb-19 16:15 33.897501 -117.777705 177 3021ft 89kts
10-Feb-19 16:16 33.872448 -117.775853 173 3093ft 95kts
10-Feb-19 16:17 33.845721 -117.777395 190 3038ft 97kts
10-Feb-19 16:18 33.819064 -117.782879 189 2983ft 97kts
10-Feb-19 16:18 33.798103 -117.792366 207 2748ft 99kts
10-Feb-19 16:19 33.773784 -117.806461 209 2125ft 96kts
10-Feb-19 16:21 33.746289 -117.824247 209 1405ft 96kts
10-Feb-19 16:22 33.723218 -117.839361 210 917ft 86kts
10-Feb-19 16:23 33.701043 -117.852035 207 523ft 93kts
10-Feb-19 16:23 33.681842 -117.864872 210 87ft 76kts
10-Feb-19 16:24 33.675041 -117.868729 169 59ft 0kts
10-Feb-19 16:25 33.675041 -117.868729 169 59ft 0kts
10-Feb-19 16:26 33.675040 -117.868729 169 59ft 0kts
10-Feb-19 16:27 33.675040 -117.868729 169 59ft 0kts
10-Feb-19 16:28 33.673923 -117.867137 53 59ft 7kts
10-Feb-19 16:29 33.673870 -117.865986 83 59ft 0kts
10-Feb-19 16:30 33.673870 -117.865986 83 59ft 0kts
10-Feb-19 16:31 33.673870 -117.865985 83 59ft 0kts
10-Feb-19 16:32 33.673870 -117.865985 83 59ft 0kts
10-Feb-19 16:33 33.673870 -117.865985 83 59ft 0kts
10-Feb-19 16:34 33.673870 -117.865984 83 59ft 0kts
10-Feb-19 16:35 33.673870 -117.865984 83 59ft 0kts
10-Feb-19 16:36 33.673870 -117.865984 83 59ft 0kts
10-Feb-19 16:37 33.673870 -117.865983 83 59ft 0kts
10-Feb-19 16:38 33.673870 -117.865983 83 59ft 0kts

Navigation Log

Ident Type
Flight plan parsing failed, navigation log unavailable